Time;durP1;ratioP1;P1;durP2;ratioP2;P2;SDS_P1;SDS_P2;PMS_P1;PMS_P2;Temp;Humidity;BMP_temperature;BMP_pressure;BME280_temperature;BME280_humidity;BME280_pressure;Samples;Min_cycle;Max_cycle;Signal;HPM_P1;HPM_P2
2023/05/21 00:00:16;;;;;;;14.20;11.17;;;;;;;;;;5016551;28;20313;-79
2023/05/21 00:02:43;;;;;;;16.10;12.90;;;;;;;;;;5022712;28;20215;-78
2023/05/21 00:05:14;;;;;;;16.13;12.50;;;;;;;;;;5030656;28;20238;-79
2023/05/21 00:07:41;;;;;;;16.83;11.93;;;;;;;;;;5030945;28;21009;-79
2023/05/21 00:10:08;;;;;;;15.63;12.20;;;;;;;;;;5023131;28;20254;-79
2023/05/21 00:12:36;;;;;;;15.60;12.07;;;;;;;;;;5010848;28;20211;-79
2023/05/21 00:15:03;;;;;;;16.23;12.40;;;;;;;;;;5010739;28;20659;-79
2023/05/21 00:17:30;;;;;;;15.07;12.40;;;;;;;;;;5015191;28;20629;-79
2023/05/21 00:19:58;;;;;;;17.87;11.63;;;;;;;;;;5029833;28;20218;-79
2023/05/21 00:22:27;;;;;;;15.67;12.60;;;;;;;;;;5022355;28;20207;-79
2023/05/21 00:24:54;;;;;;;16.73;12.37;;;;;;;;;;5017303;28;20605;-79
2023/05/21 00:27:21;;;;;;;16.23;11.77;;;;;;;;;;5017176;28;20213;-79
2023/05/21 00:29:48;;;;;;;14.20;11.50;;;;;;;;;;5030035;28;20234;-78
2023/05/21 00:32:15;;;;;;;14.30;11.33;;;;;;;;;;5030247;28;20229;-79
2023/05/21 00:34:43;;;;;;;15.50;11.83;;;;;;;;;;5032648;28;20265;-78
2023/05/21 00:37:10;;;;;;;17.53;12.43;;;;;;;;;;5023098;28;20598;-79
2023/05/21 00:39:38;;;;;;;14.20;11.53;;;;;;;;;;5020303;28;20238;-79
2023/05/21 00:42:05;;;;;;;18.70;12.73;;;;;;;;;;5033056;28;20237;-79
2023/05/21 00:44:33;;;;;;;16.07;11.60;;;;;;;;;;5028008;28;20210;-79
2023/05/21 00:47:00;;;;;;;16.80;12.90;;;;;;;;;;5016214;28;20310;-79
2023/05/21 00:49:28;;;;;;;13.93;11.53;;;;;;;;;;5033280;28;20230;-78
2023/05/21 00:51:55;;;;;;;16.87;12.43;;;;;;;;;;5020502;28;20593;-79
2023/05/21 00:54:23;;;;;;;18.20;12.00;;;;;;;;;;5027860;28;20230;-79
2023/05/21 00:56:52;;;;;;;15.07;12.23;;;;;;;;;;5033028;28;20238;-78
2023/05/21 00:59:19;;;;;;;16.07;12.50;;;;;;;;;;5017389;28;20227;-78
2023/05/21 01:01:52;;;;;;;16.33;12.10;;;;;;;;;;5029987;28;20312;-78
2023/05/21 01:04:20;;;;;;;15.77;12.17;;;;;;;;;;5029706;28;20210;-79
2023/05/21 01:06:47;;;;;;;14.80;11.80;;;;;;;;;;5024907;28;20257;-78
2023/05/21 01:09:14;;;;;;;16.30;12.50;;;;;;;;;;5033742;28;20234;-79
2023/05/21 01:11:41;;;;;;;14.63;11.63;;;;;;;;;;5022559;28;20226;-78
2023/05/21 01:14:11;;;;;;;14.30;11.40;;;;;;;;;;5023710;28;20209;-79
2023/05/21 01:16:39;;;;;;;15.63;11.53;;;;;;;;;;5024107;28;20771;-78
2023/05/21 01:19:08;;;;;;;14.80;11.20;;;;;;;;;;5027341;28;20220;-78
2023/05/21 01:21:37;;;;;;;17.13;11.90;;;;;;;;;;5022127;28;20237;-78
2023/05/21 01:24:06;;;;;;;16.10;12.70;;;;;;;;;;5023118;28;20203;-78
2023/05/21 01:26:37;;;;;;;18.67;12.97;;;;;;;;;;5030797;28;20321;-78
2023/05/21 01:29:04;;;;;;;17.10;11.40;;;;;;;;;;5013578;28;20227;-78
2023/05/21 01:31:34;;;;;;;17.30;11.57;;;;;;;;;;5012991;28;20236;-78
2023/05/21 01:34:03;;;;;;;15.23;12.33;;;;;;;;;;5028685;28;20603;-78
2023/05/21 01:36:34;;;;;;;15.30;12.23;;;;;;;;;;5027956;28;20739;-79
2023/05/21 01:39:04;;;;;;;14.60;11.50;;;;;;;;;;5032719;28;20238;-78
2023/05/21 01:41:35;;;;;;;15.30;12.27;;;;;;;;;;5031131;28;20226;-78
2023/05/21 01:44:02;;;;;;;15.63;11.87;;;;;;;;;;5017201;28;20210;-78
2023/05/21 01:46:31;;;;;;;16.90;12.10;;;;;;;;;;5031148;28;20237;-78
2023/05/21 01:48:58;;;;;;;17.43;12.63;;;;;;;;;;5021752;28;20710;-78
2023/05/21 01:51:25;;;;;;;15.33;11.77;;;;;;;;;;5030764;28;20238;-79
2023/05/21 01:53:52;;;;;;;14.37;11.57;;;;;;;;;;5028442;28;20207;-78
2023/05/21 01:56:21;;;;;;;15.60;11.50;;;;;;;;;;5031976;28;20231;-78
2023/05/21 01:58:50;;;;;;;15.30;11.90;;;;;;;;;;5028418;28;20273;-78
2023/05/21 02:01:17;;;;;;;14.37;12.07;;;;;;;;;;5019837;28;20230;-78
2023/05/21 02:03:44;;;;;;;16.40;12.03;;;;;;;;;;5029388;28;20265;-78
2023/05/21 02:06:11;;;;;;;14.40;11.23;;;;;;;;;;5019244;28;20226;-79
2023/05/21 02:08:39;;;;;;;17.00;12.60;;;;;;;;;;5030012;28;20226;-79
2023/05/21 02:11:06;;;;;;;14.50;12.37;;;;;;;;;;5024342;28;20304;-79
2023/05/21 02:13:33;;;;;;;19.43;12.37;;;;;;;;;;5030366;28;20206;-79
2023/05/21 02:16:02;;;;;;;16.00;12.17;;;;;;;;;;5028696;28;20697;-79
2023/05/21 02:18:29;;;;;;;16.30;11.63;;;;;;;;;;5023248;28;20703;-78
2023/05/21 02:20:57;;;;;;;14.80;11.43;;;;;;;;;;5024626;28;20222;-78
2023/05/21 02:23:24;;;;;;;16.00;11.40;;;;;;;;;;5031887;28;20703;-79
2023/05/21 02:25:51;;;;;;;16.33;11.83;;;;;;;;;;5031738;28;20233;-79
2023/05/21 02:28:18;;;;;;;17.27;12.27;;;;;;;;;;5032187;28;20222;-78
2023/05/21 02:30:45;;;;;;;16.57;11.23;;;;;;;;;;5031336;28;20638;-79
2023/05/21 02:33:14;;;;;;;15.63;11.93;;;;;;;;;;5031855;28;20203;-79
2023/05/21 02:35:42;;;;;;;15.00;12.07;;;;;;;;;;5013057;28;20260;-78
2023/05/21 02:38:12;;;;;;;16.67;12.23;;;;;;;;;;5012100;28;20214;-79
2023/05/21 02:40:39;;;;;;;15.30;12.37;;;;;;;;;;5011637;28;20231;-79
2023/05/21 02:43:06;;;;;;;15.57;11.60;;;;;;;;;;5012011;28;20693;-78
2023/05/21 02:45:34;;;;;;;14.00;10.97;;;;;;;;;;5023069;28;20234;-79
2023/05/21 02:48:01;;;;;;;15.37;11.47;;;;;;;;;;5031569;28;20290;-78
2023/05/21 02:50:29;;;;;;;19.77;11.33;;;;;;;;;;5015777;28;20235;-79
2023/05/21 02:52:58;;;;;;;16.97;11.97;;;;;;;;;;5029479;28;20588;-79
2023/05/21 02:55:25;;;;;;;15.33;12.47;;;;;;;;;;5030182;28;20230;-79
2023/05/21 02:57:52;;;;;;;16.70;11.90;;;;;;;;;;5030952;28;20207;-78
2023/05/21 03:00:19;;;;;;;16.37;12.70;;;;;;;;;;5030910;28;20242;-79
2023/05/21 03:02:46;;;;;;;15.90;12.20;;;;;;;;;;5020277;28;20657;-78
2023/05/21 03:05:13;;;;;;;18.73;12.83;;;;;;;;;;5016213;28;20230;-79
2023/05/21 03:07:42;;;;;;;16.13;12.27;;;;;;;;;;5029645;28;20691;-79
2023/05/21 03:10:09;;;;;;;14.30;11.80;;;;;;;;;;5030650;28;20655;-78
2023/05/21 03:12:36;;;;;;;16.97;12.87;;;;;;;;;;5029807;28;20214;-78
2023/05/21 03:15:04;;;;;;;14.07;12.07;;;;;;;;;;5021588;28;20295;-79
2023/05/21 03:17:31;;;;;;;16.07;12.47;;;;;;;;;;5028503;28;20262;-78
2023/05/21 03:19:58;;;;;;;17.07;12.93;;;;;;;;;;5030901;28;20736;-79
2023/05/21 03:22:25;;;;;;;18.77;12.20;;;;;;;;;;5023256;28;20206;-78
2023/05/21 03:24:53;;;;;;;17.10;12.27;;;;;;;;;;5014394;28;20611;-79
2023/05/21 03:27:20;;;;;;;15.53;12.47;;;;;;;;;;5019394;28;20200;-78
2023/05/21 03:29:47;;;;;;;16.37;11.63;;;;;;;;;;5010858;28;20227;-79
2023/05/21 03:32:15;;;;;;;16.43;11.90;;;;;;;;;;5025142;28;20780;-78
2023/05/21 03:34:42;;;;;;;16.70;12.10;;;;;;;;;;5030692;28;20214;-78
2023/05/21 03:37:09;;;;;;;15.53;12.60;;;;;;;;;;5030351;28;20230;-78
2023/05/21 03:39:36;;;;;;;20.03;12.63;;;;;;;;;;5027969;28;20257;-78
2023/05/21 03:42:04;;;;;;;19.10;12.80;;;;;;;;;;5020702;28;20243;-79
2023/05/21 03:44:31;;;;;;;16.53;12.90;;;;;;;;;;5011642;28;20207;-84
2023/05/21 03:46:58;;;;;;;16.17;12.13;;;;;;;;;;5015103;28;20704;-84
2023/05/21 03:49:25;;;;;;;18.77;11.60;;;;;;;;;;5031185;28;20230;-84
2023/05/21 03:51:53;;;;;;;14.80;12.10;;;;;;;;;;5030728;28;20246;-84
2023/05/21 03:54:20;;;;;;;15.70;12.20;;;;;;;;;;5016179;28;20219;-84
2023/05/21 03:56:47;;;;;;;15.47;12.30;;;;;;;;;;5029595;28;20237;-84
2023/05/21 03:59:15;;;;;;;16.27;11.73;;;;;;;;;;5025067;28;20242;-84
2023/05/21 04:01:42;;;;;;;15.50;12.47;;;;;;;;;;5011004;28;20238;-84
2023/05/21 04:04:09;;;;;;;18.60;12.73;;;;;;;;;;5016854;28;20199;-84
2023/05/21 04:06:37;;;;;;;24.33;12.67;;;;;;;;;;5014267;28;20237;-84
2023/05/21 04:09:04;;;;;;;17.27;12.17;;;;;;;;;;5032728;28;20245;-84
2023/05/21 04:11:31;;;;;;;16.50;12.33;;;;;;;;;;5034346;28;20226;-84
2023/05/21 04:13:58;;;;;;;16.10;12.13;;;;;;;;;;5034712;28;20226;-84
2023/05/21 04:16:27;;;;;;;15.43;12.40;;;;;;;;;;5027059;28;20717;-84
2023/05/21 04:18:55;;;;;;;15.93;11.43;;;;;;;;;;5023220;28;20623;-84
2023/05/21 04:21:22;;;;;;;16.23;12.80;;;;;;;;;;5029929;28;20257;-84
2023/05/21 04:23:49;;;;;;;17.97;12.03;;;;;;;;;;5017120;28;20215;-84
2023/05/21 04:26:16;;;;;;;17.10;12.53;;;;;;;;;;5027202;28;20226;-84
2023/05/21 04:28:44;;;;;;;19.37;12.80;;;;;;;;;;5037803;28;20689;-84
2023/05/21 04:31:12;;;;;;;13.20;11.73;;;;;;;;;;5032906;28;20612;-83
2023/05/21 04:33:44;;;;;;;16.90;12.50;;;;;;;;;;5035304;28;20293;-84
2023/05/21 04:36:12;;;;;;;15.40;12.77;;;;;;;;;;5034967;28;20223;-84
2023/05/21 04:38:40;;;;;;;20.53;11.87;;;;;;;;;;5034269;28;20735;-84
2023/05/21 04:41:09;;;;;;;16.80;13.17;;;;;;;;;;5025836;28;20308;-85
2023/05/21 04:43:37;;;;;;;16.20;12.50;;;;;;;;;;5034148;28;20211;-84
2023/05/21 04:46:04;;;;;;;16.80;12.50;;;;;;;;;;5025745;28;20605;-84
2023/05/21 04:48:31;;;;;;;20.03;13.17;;;;;;;;;;5034325;28;20237;-84
2023/05/21 04:51:00;;;;;;;17.67;12.50;;;;;;;;;;5020379;28;20260;-84
2023/05/21 04:53:28;;;;;;;18.13;12.97;;;;;;;;;;5034159;28;20211;-84
2023/05/21 04:55:55;;;;;;;18.83;13.20;;;;;;;;;;5033699;28;20230;-84
2023/05/21 04:58:22;;;;;;;18.70;12.90;;;;;;;;;;5025847;28;20230;-84
2023/05/21 05:00:50;;;;;;;17.43;11.87;;;;;;;;;;5033426;28;20235;-84
2023/05/21 05:03:17;;;;;;;17.07;13.03;;;;;;;;;;5034136;28;20592;-84
2023/05/21 05:05:44;;;;;;;17.07;13.80;;;;;;;;;;5033252;28;20238;-84
2023/05/21 05:08:12;;;;;;;16.60;13.60;;;;;;;;;;5034066;28;20273;-84
2023/05/21 05:10:39;;;;;;;21.10;13.70;;;;;;;;;;5032551;28;20238;-84
2023/05/21 05:13:06;;;;;;;19.50;12.33;;;;;;;;;;5018260;28;20723;-84
2023/05/21 05:15:33;;;;;;;15.90;12.57;;;;;;;;;;5033546;28;20241;-84
2023/05/21 05:18:01;;;;;;;21.13;12.93;;;;;;;;;;5020919;28;20210;-84
2023/05/21 05:20:28;;;;;;;18.23;12.70;;;;;;;;;;5033121;28;20234;-84
2023/05/21 05:22:55;;;;;;;17.67;13.10;;;;;;;;;;5033267;28;20692;-85
2023/05/21 05:25:23;;;;;;;16.80;12.40;;;;;;;;;;5033497;28;20230;-84
2023/05/21 05:27:50;;;;;;;17.93;13.57;;;;;;;;;;5033408;28;20265;-85
2023/05/21 05:30:17;;;;;;;17.17;13.03;;;;;;;;;;5032908;28;20239;-85
2023/05/21 05:32:45;;;;;;;20.00;13.33;;;;;;;;;;5033408;28;20233;-85
2023/05/21 05:35:12;;;;;;;17.33;13.80;;;;;;;;;;5033018;28;20230;-85
2023/05/21 05:37:39;;;;;;;18.27;13.03;;;;;;;;;;5024388;28;20211;-85
2023/05/21 05:40:07;;;;;;;18.80;13.50;;;;;;;;;;5017020;28;20243;-85
2023/05/21 05:42:35;;;;;;;17.10;12.57;;;;;;;;;;5024960;28;20214;-85
2023/05/21 05:45:02;;;;;;;15.13;12.70;;;;;;;;;;5022235;28;20207;-84
2023/05/21 05:47:30;;;;;;;22.73;13.60;;;;;;;;;;5033339;28;20210;-84
2023/05/21 05:49:57;;;;;;;16.53;13.33;;;;;;;;;;5024454;28;20312;-84
2023/05/21 05:52:24;;;;;;;19.77;13.27;;;;;;;;;;5033058;28;20223;-84
2023/05/21 05:54:51;;;;;;;17.07;13.20;;;;;;;;;;5032302;28;20215;-84
2023/05/21 05:57:18;;;;;;;18.97;12.83;;;;;;;;;;5033030;28;20202;-85
2023/05/21 05:59:46;;;;;;;15.77;12.80;;;;;;;;;;5024252;28;20229;-82
2023/05/21 06:02:13;;;;;;;17.53;12.93;;;;;;;;;;5032831;28;20199;-83
2023/05/21 06:04:41;;;;;;;20.13;12.77;;;;;;;;;;5032593;28;20203;-83
2023/05/21 06:07:08;;;;;;;16.47;13.27;;;;;;;;;;5028192;28;20231;-83
2023/05/21 06:09:35;;;;;;;16.53;12.43;;;;;;;;;;5013119;28;20227;-85
2023/05/21 06:12:02;;;;;;;21.17;12.97;;;;;;;;;;5023992;28;20291;-84
2023/05/21 06:14:29;;;;;;;19.23;14.33;;;;;;;;;;5032923;28;20573;-85
2023/05/21 06:16:57;;;;;;;14.93;11.90;;;;;;;;;;5029858;28;20251;-84
2023/05/21 06:19:24;;;;;;;18.33;13.27;;;;;;;;;;5013318;28;20227;-84
2023/05/21 06:21:51;;;;;;;17.60;12.63;;;;;;;;;;5030275;28;20230;-83
2023/05/21 06:24:18;;;;;;;14.87;12.53;;;;;;;;;;5032577;28;20214;-83
2023/05/21 06:26:46;;;;;;;15.30;12.63;;;;;;;;;;5023808;28;20638;-83
2023/05/21 06:29:13;;;;;;;16.47;12.40;;;;;;;;;;5019574;28;20230;-83
2023/05/21 06:31:40;;;;;;;15.90;12.57;;;;;;;;;;5019488;28;20242;-83
2023/05/21 06:34:09;;;;;;;16.07;11.70;;;;;;;;;;5024649;28;20669;-83
2023/05/21 06:36:36;;;;;;;15.20;12.23;;;;;;;;;;5032050;28;20234;-82
2023/05/21 06:39:03;;;;;;;14.07;11.67;;;;;;;;;;5028918;28;20227;-83
2023/05/21 06:41:30;;;;;;;15.50;11.33;;;;;;;;;;5012145;28;20239;-83
2023/05/21 06:43:57;;;;;;;15.80;12.67;;;;;;;;;;5012148;28;20214;-83
2023/05/21 06:46:24;;;;;;;12.30;10.90;;;;;;;;;;5026297;28;20230;-83
2023/05/21 06:48:51;;;;;;;15.80;10.70;;;;;;;;;;5031869;28;20229;-83
2023/05/21 06:51:20;;;;;;;14.87;10.93;;;;;;;;;;5031849;28;20233;-83
2023/05/21 06:53:47;;;;;;;14.03;11.57;;;;;;;;;;5014646;28;20211;-83
2023/05/21 06:56:14;;;;;;;13.97;9.87;;;;;;;;;;5020304;28;20227;-83
2023/05/21 06:58:41;;;;;;;17.83;10.67;;;;;;;;;;5020567;28;20238;-83
2023/05/21 07:01:08;;;;;;;12.15;10.65;;;;;;;;;;5031417;28;20234;-83
2023/05/21 07:03:36;;;;;;;13.90;10.70;;;;;;;;;;5027821;28;20575;-83
2023/05/21 07:06:03;;;;;;;14.13;11.30;;;;;;;;;;5031543;28;20237;-84
2023/05/21 07:08:32;;;;;;;14.43;10.60;;;;;;;;;;5032181;28;20227;-83
2023/05/21 07:10:59;;;;;;;11.40;10.10;;;;;;;;;;5031603;28;20244;-84
2023/05/21 07:13:26;;;;;;;15.73;11.15;;;;;;;;;;5031818;28;20231;-84
2023/05/21 07:15:53;;;;;;;11.45;9.77;;;;;;;;;;5029422;28;20257;-84
2023/05/21 07:18:20;;;;;;;12.10;10.20;;;;;;;;;;5030779;28;20595;-84
2023/05/21 07:20:47;;;;;;;11.27;9.93;;;;;;;;;;5031430;28;20237;-84
2023/05/21 07:23:14;;;;;;;13.10;9.90;;;;;;;;;;5031459;28;20236;-84
2023/05/21 07:25:42;;;;;;;11.70;9.77;;;;;;;;;;5017431;28;20235;-83
2023/05/21 07:28:09;;;;;;;13.23;9.70;;;;;;;;;;5014062;28;20210;-84
2023/05/21 07:30:36;;;;;;;10.60;9.55;;;;;;;;;;5011554;28;20235;-84
2023/05/21 07:33:03;;;;;;;11.25;9.35;;;;;;;;;;5011597;28;20226;-83
2023/05/21 07:35:31;;;;;;;11.27;9.77;;;;;;;;;;5011442;28;20238;-84
2023/05/21 07:37:58;;;;;;;11.55;10.10;;;;;;;;;;5029778;28;20210;-84
2023/05/21 07:40:25;;;;;;;11.40;9.82;;;;;;;;;;5031436;28;20243;-84
2023/05/21 07:42:53;;;;;;;12.23;9.63;;;;;;;;;;5032580;28;20298;-84
2023/05/21 07:45:20;;;;;;;11.93;9.70;;;;;;;;;;5035404;28;20257;-84
2023/05/21 07:47:47;;;;;;;13.30;9.90;;;;;;;;;;5026707;28;20210;-84
2023/05/21 07:50:15;;;;;;;11.40;9.50;;;;;;;;;;5027723;28;20234;-84
2023/05/21 07:52:42;;;;;;;10.75;9.65;;;;;;;;;;5035347;28;20222;-85
2023/05/21 07:55:09;;;;;;;10.55;9.25;;;;;;;;;;5027153;28;20230;-85
2023/05/21 07:57:37;;;;;;;11.57;9.13;;;;;;;;;;5035476;28;20202;-84
2023/05/21 08:00:07;;;;;;;12.00;9.45;;;;;;;;;;5034636;28;20227;-84
2023/05/21 08:02:34;;;;;;;12.23;9.60;;;;;;;;;;5035660;28;20613;-82
2023/05/21 08:05:02;;;;;;;10.50;9.05;;;;;;;;;;5034552;28;20211;-82
2023/05/21 08:07:30;;;;;;;12.18;9.63;;;;;;;;;;5021572;28;20211;-82
2023/05/21 08:09:57;;;;;;;12.25;9.73;;;;;;;;;;5033158;28;20230;-83
2023/05/21 08:12:24;;;;;;;10.45;9.23;;;;;;;;;;5035195;28;20231;-83
2023/05/21 08:14:51;;;;;;;11.77;9.45;;;;;;;;;;5033474;28;20207;-83
2023/05/21 08:17:20;;;;;;;10.77;9.10;;;;;;;;;;5015401;28;20642;-83
2023/05/21 08:19:47;;;;;;;10.48;9.25;;;;;;;;;;5023006;28;20235;-83
2023/05/21 08:22:14;;;;;;;10.55;9.35;;;;;;;;;;5034855;28;20198;-83
2023/05/21 08:24:41;;;;;;;9.68;8.68;;;;;;;;;;5034780;28;20203;-83
2023/05/21 08:27:08;;;;;;;9.20;8.30;;;;;;;;;;5023161;28;20599;-83
2023/05/21 08:29:36;;;;;;;10.05;8.63;;;;;;;;;;5015195;28;20234;-83
2023/05/21 08:32:03;;;;;;;9.13;7.95;;;;;;;;;;5014234;28;20239;-83
2023/05/21 08:34:31;;;;;;;10.90;8.80;;;;;;;;;;5020975;28;20213;-83
2023/05/21 08:36:58;;;;;;;11.05;9.75;;;;;;;;;;5033786;28;20258;-84
2023/05/21 08:39:26;;;;;;;9.80;8.80;;;;;;;;;;5031267;28;20231;-90
2023/05/21 08:41:57;;;;;;;8.10;6.65;;;;;;;;;;5032752;28;20237;-88
2023/05/21 08:44:26;;;;;;;8.45;7.18;;;;;;;;;;5031351;28;20560;-88
2023/05/21 08:46:54;;;;;;;8.90;7.03;;;;;;;;;;5026949;28;20309;-86
2023/05/21 08:49:23;;;;;;;8.23;7.18;;;;;;;;;;5035522;28;20226;-86
2023/05/21 08:51:53;;;;;;;7.88;7.03;;;;;;;;;;5018685;28;20238;-87
2023/05/21 08:54:21;;;;;;;7.95;7.15;;;;;;;;;;5035104;28;20207;-89
2023/05/21 08:56:48;;;;;;;7.97;7.18;;;;;;;;;;5035373;28;20235;-86
2023/05/21 08:59:15;;;;;;;7.38;6.68;;;;;;;;;;5032084;28;20226;-87
2023/05/21 09:01:44;;;;;;;7.50;6.70;;;;;;;;;;5024981;28;20235;-90
2023/05/21 09:04:13;;;;;;;9.43;7.15;;;;;;;;;;5033458;28;20235;-91
2023/05/21 09:06:41;;;;;;;7.43;6.72;;;;;;;;;;5036757;28;20238;-91
2023/05/21 09:09:15;;;;;;;7.82;6.50;;;;;;;;;;5036834;28;20288;-91
2023/05/21 09:11:42;;;;;;;7.57;6.78;;;;;;;;;;5036513;28;20285;-92
2023/05/21 09:14:10;;;;;;;7.95;6.10;;;;;;;;;;5038419;28;20207;-91
2023/05/21 09:16:37;;;;;;;7.03;6.00;;;;;;;;;;5036505;28;20231;-90
2023/05/21 09:19:05;;;;;;;7.55;6.78;;;;;;;;;;5036506;28;20237;-89
2023/05/21 09:21:32;;;;;;;7.30;6.40;;;;;;;;;;5034637;28;20307;-88
2023/05/21 09:24:00;;;;;;;8.05;6.97;;;;;;;;;;5033162;28;20273;-88
2023/05/21 09:26:29;;;;;;;7.25;6.43;;;;;;;;;;5028555;28;20237;-89
2023/05/21 09:28:57;;;;;;;6.80;6.10;;;;;;;;;;5019388;28;20227;-89
2023/05/21 09:31:25;;;;;;;7.88;6.82;;;;;;;;;;5027070;28;20245;-89
2023/05/21 09:33:54;;;;;;;6.88;6.18;;;;;;;;;;5035498;28;20285;-88
2023/05/21 09:36:21;;;;;;;7.65;6.85;;;;;;;;;;5035210;28;20317;-89
2023/05/21 09:38:49;;;;;;;7.05;6.35;;;;;;;;;;5027964;28;20720;-89
2023/05/21 09:41:16;;;;;;;8.13;7.07;;;;;;;;;;5031913;28;21054;-88
2023/05/21 09:43:44;;;;;;;7.47;6.78;;;;;;;;;;5024355;28;20214;-89
2023/05/21 09:46:12;;;;;;;8.07;7.25;;;;;;;;;;5034806;28;20234;-87
2023/05/21 09:48:40;;;;;;;7.20;6.43;;;;;;;;;;5020933;28;20231;-86
2023/05/21 09:51:11;;;;;;;8.27;6.40;;;;;;;;;;5033875;28;20241;-88
2023/05/21 09:53:43;;;;;;;8.98;6.70;;;;;;;;;;5034230;28;20309;-85
2023/05/21 09:56:10;;;;;;;7.45;6.68;;;;;;;;;;5033659;28;20237;-85
2023/05/21 09:58:39;;;;;;;7.18;6.40;;;;;;;;;;5018759;28;20227;-85
2023/05/21 10:01:08;;;;;;;6.85;6.15;;;;;;;;;;5031279;28;20265;-85
2023/05/21 10:03:39;;;;;;;7.22;6.50;;;;;;;;;;5032977;28;20206;-86
2023/05/21 10:06:08;;;;;;;6.78;6.18;;;;;;;;;;5029385;28;20313;-86
2023/05/21 10:08:36;;;;;;;7.80;6.47;;;;;;;;;;5027320;28;20653;-85
2023/05/21 10:11:05;;;;;;;7.40;6.70;;;;;;;;;;5032150;28;20778;-86
2023/05/21 10:13:32;;;;;;;7.72;6.32;;;;;;;;;;5024549;28;20321;-86
2023/05/21 10:16:02;;;;;;;7.07;6.38;;;;;;;;;;5032192;28;20235;-85
2023/05/21 10:18:31;;;;;;;7.40;6.53;;;;;;;;;;5024966;28;20257;-86
2023/05/21 10:20:59;;;;;;;7.05;6.35;;;;;;;;;;5054608;23;20226;-85
2023/05/21 10:23:27;;;;;;;6.70;6.07;;;;;;;;;;5008926;28;20216;-85
2023/05/21 10:25:55;;;;;;;6.85;6.25;;;;;;;;;;5001767;28;20231;-84
2023/05/21 10:28:23;;;;;;;6.93;6.22;;;;;;;;;;5013277;28;20208;-84
2023/05/21 10:30:50;;;;;;;6.80;6.15;;;;;;;;;;5012170;28;20614;-85
2023/05/21 10:33:17;;;;;;;6.88;5.90;;;;;;;;;;5012642;28;20223;-85
2023/05/21 10:35:47;;;;;;;7.15;6.45;;;;;;;;;;5012129;28;20235;-85
2023/05/21 10:38:15;;;;;;;6.35;5.75;;;;;;;;;;5012552;28;20213;-85
2023/05/21 10:40:42;;;;;;;6.80;6.20;;;;;;;;;;5012493;28;20238;-85
2023/05/21 10:43:14;;;;;;;6.75;6.03;;;;;;;;;;5011945;28;20610;-87
2023/05/21 10:45:46;;;;;;;6.50;5.90;;;;;;;;;;5012055;28;20286;-85
2023/05/21 10:48:19;;;;;;;7.78;5.93;;;;;;;;;;5012206;28;20230;-85
2023/05/21 10:50:57;;;;;;;6.40;5.80;;;;;;;;;;5012191;28;20243;-85
2023/05/21 10:53:29;;;;;;;7.40;6.13;;;;;;;;;;5005207;28;20229;-85
2023/05/21 10:56:03;;;;;;;7.20;6.22;;;;;;;;;;5011600;28;20235;-85
2023/05/21 10:58:41;;;;;;;6.43;5.82;;;;;;;;;;5005927;28;20692;-86
2023/05/21 11:01:08;;;;;;;6.50;5.82;;;;;;;;;;5015364;28;20242;-86
2023/05/21 11:03:36;;;;;;;6.95;6.35;;;;;;;;;;5014306;28;20298;-87
2023/05/21 11:06:05;;;;;;;6.95;6.05;;;;;;;;;;5014117;28;20226;-86
2023/05/21 11:08:34;;;;;;;6.93;6.22;;;;;;;;;;5014337;28;20215;-86
2023/05/21 11:11:02;;;;;;;6.90;6.10;;;;;;;;;;4997369;28;20723;-86
2023/05/21 11:13:31;;;;;;;6.28;5.68;;;;;;;;;;5013925;28;20235;-87
2023/05/21 11:16:07;;;;;;;6.43;5.75;;;;;;;;;;5018874;28;20262;-84
2023/05/21 11:19:05;;;;;;;7.10;5.70;;;;;;;;;;5024669;28;20215;-86
2023/05/21 11:21:34;;;;;;;6.57;5.93;;;;;;;;;;4973650;28;20329;-87
2023/05/21 11:24:18;;;;;;;7.18;6.20;;;;;;;;;;5001132;28;20207;-87
2023/05/21 11:27:05;;;;;;;6.28;5.68;;;;;;;;;;5015077;28;20235;-87
2023/05/21 11:29:40;;;;;;;6.43;5.82;;;;;;;;;;5014282;28;20277;-86
2023/05/21 11:32:09;;;;;;;6.95;6.28;;;;;;;;;;5014935;28;20600;-87
2023/05/21 11:34:42;;;;;;;8.32;5.32;;;;;;;;;;5015223;28;20238;-89
2023/05/21 11:37:28;;;;;;;6.50;5.90;;;;;;;;;;5015774;28;20235;-87
2023/05/21 11:39:56;;;;;;;11.63;5.82;;;;;;;;;;5014806;28;20290;-88
2023/05/21 11:42:31;;;;;;;6.47;5.70;;;;;;;;;;5014770;28;20227;-88
2023/05/21 11:44:58;;;;;;;6.47;5.88;;;;;;;;;;5008238;28;20214;-87
2023/05/21 11:47:26;;;;;;;6.43;5.80;;;;;;;;;;5012182;28;20248;-87
2023/05/21 11:49:53;;;;;;;6.30;5.70;;;;;;;;;;5011762;28;20614;-87
2023/05/21 11:52:20;;;;;;;6.13;5.35;;;;;;;;;;5012787;28;20259;-88
2023/05/21 11:54:50;;;;;;;7.93;6.30;;;;;;;;;;5012940;28;20227;-87
2023/05/21 11:57:18;;;;;;;6.35;5.50;;;;;;;;;;5012336;28;20269;-88
2023/05/21 11:59:45;;;;;;;6.05;5.50;;;;;;;;;;5011897;28;20246;-84
2023/05/21 12:02:15;;;;;;;6.43;5.50;;;;;;;;;;5011144;28;20239;-84
2023/05/21 12:04:42;;;;;;;6.20;5.60;;;;;;;;;;5011402;28;20231;-85
2023/05/21 12:07:10;;;;;;;7.22;5.40;;;;;;;;;;5010533;28;20239;-86
2023/05/21 12:09:40;;;;;;;6.03;5.43;;;;;;;;;;5011445;28;20649;-87
2023/05/21 12:12:10;;;;;;;10.93;7.00;;;;;;;;;;5010510;28;20743;-88
2023/05/21 12:14:37;;;;;;;6.78;6.07;;;;;;;;;;5011655;28;20227;-87
2023/05/21 12:17:04;;;;;;;5.88;5.22;;;;;;;;;;5005346;28;20227;-88
2023/05/21 12:19:33;;;;;;;7.38;4.82;;;;;;;;;;5008975;28;20216;-88
2023/05/21 12:22:01;;;;;;;5.85;5.32;;;;;;;;;;5015324;28;20266;-88
2023/05/21 12:24:28;;;;;;;6.05;5.53;;;;;;;;;;5010900;28;20218;-88
2023/05/21 12:26:58;;;;;;;6.18;5.03;;;;;;;;;;5010537;28;20231;-86
2023/05/21 12:29:26;;;;;;;6.45;5.10;;;;;;;;;;5010910;28;20222;-86
2023/05/21 12:31:53;;;;;;;5.78;5.15;;;;;;;;;;5013986;28;20242;-88
2023/05/21 12:34:40;;;;;;;5.93;5.32;;;;;;;;;;5014651;28;20231;-88
2023/05/21 12:37:07;;;;;;;6.10;5.53;;;;;;;;;;5014473;28;20305;-88
2023/05/21 12:39:37;;;;;;;6.35;5.50;;;;;;;;;;5015398;28;20244;-88
2023/05/21 12:42:05;;;;;;;6.25;5.45;;;;;;;;;;5013897;28;20227;-89
2023/05/21 12:44:33;;;;;;;5.60;5.10;;;;;;;;;;5014587;28;20215;-88
2023/05/21 12:47:01;;;;;;;6.38;5.65;;;;;;;;;;5005656;28;20240;-87
2023/05/21 12:49:31;;;;;;;6.38;5.70;;;;;;;;;;5014762;28;20678;-87
2023/05/21 12:51:58;;;;;;;7.95;5.65;;;;;;;;;;5011747;28;20316;-87
2023/05/21 12:54:29;;;;;;;6.50;5.65;;;;;;;;;;5014293;28;20231;-87
2023/05/21 12:56:56;;;;;;;5.85;5.35;;;;;;;;;;5014152;28;20239;-88
2023/05/21 12:59:23;;;;;;;6.60;5.90;;;;;;;;;;5014461;28;20211;-87
2023/05/21 13:01:53;;;;;;;5.90;5.22;;;;;;;;;;5014168;28;20242;-88
2023/05/21 13:04:20;;;;;;;7.13;6.13;;;;;;;;;;5014863;28;20265;-87
2023/05/21 13:06:47;;;;;;;7.40;6.13;;;;;;;;;;5014160;28;20293;-87
2023/05/21 13:09:14;;;;;;;8.02;5.80;;;;;;;;;;5014157;28;20215;-88
2023/05/21 13:11:42;;;;;;;7.05;5.65;;;;;;;;;;5013692;28;20712;-87
2023/05/21 13:14:09;;;;;;;9.05;5.60;;;;;;;;;;5013834;28;20220;-88
2023/05/21 13:16:36;;;;;;;6.78;6.10;;;;;;;;;;5013884;28;20705;-88
2023/05/21 13:19:05;;;;;;;6.22;5.03;;;;;;;;;;5013406;28;20208;-88
2023/05/21 13:21:32;;;;;;;5.72;5.13;;;;;;;;;;4998270;28;20620;-88
2023/05/21 13:23:59;;;;;;;5.40;4.90;;;;;;;;;;5013869;28;20219;-87
2023/05/21 13:26:26;;;;;;;6.25;4.97;;;;;;;;;;5013270;28;20231;-87
2023/05/21 13:28:53;;;;;;;5.85;5.30;;;;;;;;;;5014008;28;20211;-87
2023/05/21 13:31:20;;;;;;;6.10;5.55;;;;;;;;;;5013260;28;20227;-88
2023/05/21 13:33:47;;;;;;;5.32;4.93;;;;;;;;;;5013831;28;20231;-87
2023/05/21 13:36:16;;;;;;;6.10;5.50;;;;;;;;;;5005002;28;20238;-88
2023/05/21 13:38:43;;;;;;;5.78;5.30;;;;;;;;;;5013823;28;20211;-88
2023/05/21 13:41:10;;;;;;;8.35;6.47;;;;;;;;;;5012924;28;20243;-87
2023/05/21 13:43:37;;;;;;;5.78;5.28;;;;;;;;;;5013812;28;20212;-87
2023/05/21 13:46:04;;;;;;;6.43;5.43;;;;;;;;;;5013280;28;20239;-87
2023/05/21 13:48:31;;;;;;;5.60;5.10;;;;;;;;;;5013862;28;20567;-88
2023/05/21 13:50:58;;;;;;;5.32;4.80;;;;;;;;;;5005500;28;20230;-88
2023/05/21 13:53:26;;;;;;;6.20;5.22;;;;;;;;;;5013555;28;20211;-87
2023/05/21 13:55:54;;;;;;;5.80;5.00;;;;;;;;;;5006465;28;20240;-88
2023/05/21 13:58:21;;;;;;;5.95;5.45;;;;;;;;;;5012690;28;20215;-87
2023/05/21 14:00:48;;;;;;;6.00;5.40;;;;;;;;;;5013773;28;20259;-88
2023/05/21 14:03:15;;;;;;;5.90;5.40;;;;;;;;;;5013445;28;20234;-88
2023/05/21 14:05:42;;;;;;;7.50;5.90;;;;;;;;;;5013350;28;20398;-87
2023/05/21 14:08:10;;;;;;;5.80;5.30;;;;;;;;;;5013339;28;20680;-87
2023/05/21 14:10:38;;;;;;;7.60;5.13;;;;;;;;;;5012892;28;20226;-88
2023/05/21 14:13:05;;;;;;;5.97;5.38;;;;;;;;;;5012963;28;20231;-87
2023/05/21 14:15:32;;;;;;;5.75;5.15;;;;;;;;;;5012664;28;20239;-88
2023/05/21 14:17:59;;;;;;;5.60;5.10;;;;;;;;;;5013415;28;20226;-88
2023/05/21 14:20:26;;;;;;;5.35;4.85;;;;;;;;;;5012676;28;20230;-88
2023/05/21 14:22:53;;;;;;;6.45;4.85;;;;;;;;;;5006606;28;20234;-87
2023/05/21 14:25:20;;;;;;;5.28;4.85;;;;;;;;;;5011558;28;20238;-87
2023/05/21 14:27:49;;;;;;;6.60;5.32;;;;;;;;;;5013435;28;20204;-87
2023/05/21 14:30:16;;;;;;;5.63;5.13;;;;;;;;;;5012528;28;20257;-87
2023/05/21 14:32:43;;;;;;;6.80;5.20;;;;;;;;;;5000044;28;20236;-87